sensor_id;sensor_type;location;lat;lon;timestamp;P1;durP1;ratioP1;P2;durP2;ratioP2
35225;SDS011;21813;49.686;21.766;2022-11-20T00:01:48;147.88;;;62.40;;
35225;SDS011;21813;49.686;21.766;2022-11-20T00:04:14;157.57;;;65.80;;
35225;SDS011;21813;49.686;21.766;2022-11-20T00:06:40;146.02;;;64.80;;
35225;SDS011;21813;49.686;21.766;2022-11-20T00:09:06;152.15;;;64.00;;
35225;SDS011;21813;49.686;21.766;2022-11-20T00:11:32;147.30;;;62.70;;
35225;SDS011;21813;49.686;21.766;2022-11-20T00:13:59;145.32;;;63.58;;
35225;SDS011;21813;49.686;21.766;2022-11-20T00:16:29;144.20;;;62.45;;
35225;SDS011;21813;49.686;21.766;2022-11-20T00:18:56;144.82;;;63.47;;
35225;SDS011;21813;49.686;21.766;2022-11-20T00:21:24;137.95;;;58.50;;
35225;SDS011;21813;49.686;21.766;2022-11-20T00:23:51;140.98;;;59.40;;
35225;SDS011;21813;49.686;21.766;2022-11-20T00:26:21;132.25;;;58.60;;
35225;SDS011;21813;49.686;21.766;2022-11-20T00:28:51;136.80;;;57.53;;
35225;SDS011;21813;49.686;21.766;2022-11-20T00:31:22;140.45;;;58.35;;
35225;SDS011;21813;49.686;21.766;2022-11-20T00:33:48;140.10;;;60.08;;
35225;SDS011;21813;49.686;21.766;2022-11-20T00:36:20;144.50;;;58.60;;
35225;SDS011;21813;49.686;21.766;2022-11-20T00:38:50;129.18;;;57.72;;
35225;SDS011;21813;49.686;21.766;2022-11-20T00:41:19;141.23;;;59.72;;
35225;SDS011;21813;49.686;21.766;2022-11-20T00:43:45;137.32;;;59.15;;
35225;SDS011;21813;49.686;21.766;2022-11-20T00:46:13;143.27;;;59.50;;
35225;SDS011;21813;49.686;21.766;2022-11-20T00:48:43;132.82;;;58.63;;
35225;SDS011;21813;49.686;21.766;2022-11-20T00:51:11;135.57;;;59.72;;
35225;SDS011;21813;49.686;21.766;2022-11-20T00:53:39;132.43;;;58.78;;
35225;SDS011;21813;49.686;21.766;2022-11-20T00:56:07;137.73;;;58.53;;
35225;SDS011;21813;49.686;21.766;2022-11-20T00:58:36;136.02;;;58.22;;
35225;SDS011;21813;49.686;21.766;2022-11-20T01:01:07;141.57;;;64.72;;
35225;SDS011;21813;49.686;21.766;2022-11-20T01:03:35;141.93;;;60.00;;
35225;SDS011;21813;49.686;21.766;2022-11-20T01:06:11;132.88;;;56.78;;
35225;SDS011;21813;49.686;21.766;2022-11-20T01:08:41;138.13;;;58.85;;
35225;SDS011;21813;49.686;21.766;2022-11-20T01:11:13;131.32;;;58.35;;
35225;SDS011;21813;49.686;21.766;2022-11-20T01:13:41;136.05;;;56.30;;
35225;SDS011;21813;49.686;21.766;2022-11-20T01:18:39;142.10;;;57.15;;
35225;SDS011;21813;49.686;21.766;2022-11-20T01:21:09;144.70;;;60.45;;
35225;SDS011;21813;49.686;21.766;2022-11-20T01:23:41;138.18;;;59.63;;
35225;SDS011;21813;49.686;21.766;2022-11-20T01:26:09;138.90;;;61.13;;
35225;SDS011;21813;49.686;21.766;2022-11-20T01:28:37;133.32;;;61.38;;
35225;SDS011;21813;49.686;21.766;2022-11-20T01:31:11;137.32;;;59.60;;
35225;SDS011;21813;49.686;21.766;2022-11-20T01:33:39;136.70;;;60.17;;
35225;SDS011;21813;49.686;21.766;2022-11-20T01:36:07;150.85;;;63.53;;
35225;SDS011;21813;49.686;21.766;2022-11-20T01:38:33;154.45;;;67.03;;
35225;SDS011;21813;49.686;21.766;2022-11-20T01:41:02;172.20;;;72.07;;
35225;SDS011;21813;49.686;21.766;2022-11-20T01:43:28;151.05;;;65.57;;
35225;SDS011;21813;49.686;21.766;2022-11-20T01:45:59;155.02;;;65.43;;
35225;SDS011;21813;49.686;21.766;2022-11-20T01:48:30;150.70;;;64.75;;
35225;SDS011;21813;49.686;21.766;2022-11-20T01:53:53;144.10;;;62.15;;
35225;SDS011;21813;49.686;21.766;2022-11-20T01:56:23;137.02;;;62.55;;
35225;SDS011;21813;49.686;21.766;2022-11-20T01:58:51;137.95;;;58.28;;
35225;SDS011;21813;49.686;21.766;2022-11-20T02:01:22;133.15;;;56.78;;
35225;SDS011;21813;49.686;21.766;2022-11-20T02:03:48;134.35;;;61.92;;
35225;SDS011;21813;49.686;21.766;2022-11-20T02:08:56;143.63;;;61.72;;
35225;SDS011;21813;49.686;21.766;2022-11-20T02:11:22;145.77;;;60.22;;
35225;SDS011;21813;49.686;21.766;2022-11-20T02:13:48;140.23;;;61.90;;
35225;SDS011;21813;49.686;21.766;2022-11-20T02:18:44;133.48;;;57.35;;
35225;SDS011;21813;49.686;21.766;2022-11-20T02:23:53;136.80;;;55.97;;
35225;SDS011;21813;49.686;21.766;2022-11-20T02:26:27;142.90;;;57.65;;
35225;SDS011;21813;49.686;21.766;2022-11-20T02:28:55;132.43;;;57.28;;
35225;SDS011;21813;49.686;21.766;2022-11-20T02:31:22;130.77;;;58.22;;
35225;SDS011;21813;49.686;21.766;2022-11-20T02:33:53;128.05;;;57.33;;
35225;SDS011;21813;49.686;21.766;2022-11-20T02:36:21;144.32;;;60.55;;
35225;SDS011;21813;49.686;21.766;2022-11-20T02:38:47;134.82;;;58.25;;
35225;SDS011;21813;49.686;21.766;2022-11-20T02:41:15;128.95;;;59.72;;
35225;SDS011;21813;49.686;21.766;2022-11-20T02:43:41;140.23;;;60.08;;
35225;SDS011;21813;49.686;21.766;2022-11-20T02:46:08;133.75;;;59.63;;
35225;SDS011;21813;49.686;21.766;2022-11-20T02:48:34;130.32;;;58.35;;
35225;SDS011;21813;49.686;21.766;2022-11-20T02:51:00;128.50;;;56.10;;
35225;SDS011;21813;49.686;21.766;2022-11-20T02:53:26;138.20;;;59.17;;
35225;SDS011;21813;49.686;21.766;2022-11-20T02:55:52;136.00;;;58.30;;
35225;SDS011;21813;49.686;21.766;2022-11-20T02:58:18;136.98;;;57.90;;
35225;SDS011;21813;49.686;21.766;2022-11-20T03:00:44;134.15;;;59.17;;
35225;SDS011;21813;49.686;21.766;2022-11-20T03:03:10;136.45;;;59.28;;
35225;SDS011;21813;49.686;21.766;2022-11-20T03:05:37;131.80;;;57.85;;
35225;SDS011;21813;49.686;21.766;2022-11-20T03:08:03;125.50;;;57.58;;
35225;SDS011;21813;49.686;21.766;2022-11-20T03:10:29;129.82;;;56.65;;
35225;SDS011;21813;49.686;21.766;2022-11-20T03:12:55;137.18;;;60.55;;
35225;SDS011;21813;49.686;21.766;2022-11-20T03:15:22;131.02;;;59.33;;
35225;SDS011;21813;49.686;21.766;2022-11-20T03:17:48;123.35;;;58.22;;
35225;SDS011;21813;49.686;21.766;2022-11-20T03:20:18;132.85;;;59.80;;
35225;SDS011;21813;49.686;21.766;2022-11-20T03:22:45;133.93;;;61.45;;
35225;SDS011;21813;49.686;21.766;2022-11-20T03:25:11;130.88;;;58.55;;
35225;SDS011;21813;49.686;21.766;2022-11-20T03:27:37;133.80;;;57.25;;
35225;SDS011;21813;49.686;21.766;2022-11-20T03:30:04;134.23;;;61.78;;
35225;SDS011;21813;49.686;21.766;2022-11-20T03:32:30;126.47;;;55.75;;
35225;SDS011;21813;49.686;21.766;2022-11-20T03:34:57;128.10;;;58.45;;
35225;SDS011;21813;49.686;21.766;2022-11-20T03:37:22;130.98;;;57.80;;
35225;SDS011;21813;49.686;21.766;2022-11-20T03:39:49;126.72;;;58.67;;
35225;SDS011;21813;49.686;21.766;2022-11-20T03:42:18;129.43;;;56.83;;
35225;SDS011;21813;49.686;21.766;2022-11-20T03:45:03;124.13;;;55.20;;
35225;SDS011;21813;49.686;21.766;2022-11-20T03:47:29;129.77;;;56.97;;
35225;SDS011;21813;49.686;21.766;2022-11-20T03:49:56;123.90;;;56.58;;
35225;SDS011;21813;49.686;21.766;2022-11-20T03:52:22;125.88;;;56.42;;
35225;SDS011;21813;49.686;21.766;2022-11-20T03:54:48;125.28;;;54.92;;
35225;SDS011;21813;49.686;21.766;2022-11-20T03:57:13;118.93;;;54.47;;
35225;SDS011;21813;49.686;21.766;2022-11-20T03:59:40;123.53;;;54.25;;
35225;SDS011;21813;49.686;21.766;2022-11-20T04:02:06;127.63;;;54.58;;
35225;SDS011;21813;49.686;21.766;2022-11-20T04:04:33;128.70;;;54.15;;
35225;SDS011;21813;49.686;21.766;2022-11-20T04:07:01;123.95;;;55.63;;
35225;SDS011;21813;49.686;21.766;2022-11-20T04:09:28;116.97;;;52.22;;
35225;SDS011;21813;49.686;21.766;2022-11-20T04:11:53;118.22;;;52.00;;
35225;SDS011;21813;49.686;21.766;2022-11-20T04:14:20;115.65;;;51.03;;
35225;SDS011;21813;49.686;21.766;2022-11-20T04:16:45;106.53;;;45.83;;
35225;SDS011;21813;49.686;21.766;2022-11-20T04:19:23;111.13;;;48.65;;
35225;SDS011;21813;49.686;21.766;2022-11-20T04:21:49;112.05;;;50.60;;
35225;SDS011;21813;49.686;21.766;2022-11-20T04:24:19;118.80;;;54.17;;
35225;SDS011;21813;49.686;21.766;2022-11-20T04:26:45;124.60;;;53.78;;
35225;SDS011;21813;49.686;21.766;2022-11-20T04:29:20;127.78;;;56.13;;
35225;SDS011;21813;49.686;21.766;2022-11-20T04:31:46;127.93;;;59.20;;
35225;SDS011;21813;49.686;21.766;2022-11-20T04:34:12;131.75;;;60.92;;
35225;SDS011;21813;49.686;21.766;2022-11-20T04:36:38;131.10;;;59.33;;
35225;SDS011;21813;49.686;21.766;2022-11-20T04:39:05;130.02;;;59.15;;
35225;SDS011;21813;49.686;21.766;2022-11-20T04:41:32;134.40;;;58.90;;
35225;SDS011;21813;49.686;21.766;2022-11-20T04:44:01;128.27;;;55.67;;
35225;SDS011;21813;49.686;21.766;2022-11-20T04:46:29;126.78;;;54.63;;
35225;SDS011;21813;49.686;21.766;2022-11-20T04:48:58;110.63;;;50.40;;
35225;SDS011;21813;49.686;21.766;2022-11-20T04:51:30;115.20;;;50.65;;
35225;SDS011;21813;49.686;21.766;2022-11-20T04:53:57;118.20;;;50.97;;
35225;SDS011;21813;49.686;21.766;2022-11-20T04:56:22;120.82;;;53.42;;
35225;SDS011;21813;49.686;21.766;2022-11-20T04:58:49;112.45;;;51.97;;
35225;SDS011;21813;49.686;21.766;2022-11-20T05:01:16;110.05;;;50.38;;
35225;SDS011;21813;49.686;21.766;2022-11-20T05:03:45;116.07;;;53.92;;
35225;SDS011;21813;49.686;21.766;2022-11-20T05:06:12;117.07;;;54.20;;
35225;SDS011;21813;49.686;21.766;2022-11-20T05:08:41;113.93;;;50.85;;
35225;SDS011;21813;49.686;21.766;2022-11-20T05:11:07;110.00;;;52.75;;
35225;SDS011;21813;49.686;21.766;2022-11-20T05:13:39;123.22;;;56.28;;
35225;SDS011;21813;49.686;21.766;2022-11-20T05:16:06;133.48;;;57.92;;
35225;SDS011;21813;49.686;21.766;2022-11-20T05:18:39;118.90;;;54.15;;
35225;SDS011;21813;49.686;21.766;2022-11-20T05:21:05;130.02;;;58.75;;
35225;SDS011;21813;49.686;21.766;2022-11-20T05:23:33;132.80;;;60.08;;
35225;SDS011;21813;49.686;21.766;2022-11-20T05:25:59;132.95;;;58.70;;
35225;SDS011;21813;49.686;21.766;2022-11-20T05:28:27;130.95;;;60.35;;
35225;SDS011;21813;49.686;21.766;2022-11-20T05:30:53;133.80;;;59.47;;
35225;SDS011;21813;49.686;21.766;2022-11-20T05:33:20;139.52;;;61.28;;
35225;SDS011;21813;49.686;21.766;2022-11-20T05:35:46;139.20;;;60.40;;
35225;SDS011;21813;49.686;21.766;2022-11-20T05:38:14;140.35;;;63.67;;
35225;SDS011;21813;49.686;21.766;2022-11-20T05:40:40;139.77;;;63.50;;
35225;SDS011;21813;49.686;21.766;2022-11-20T05:43:08;140.07;;;63.53;;
35225;SDS011;21813;49.686;21.766;2022-11-20T05:45:33;140.00;;;61.90;;
35225;SDS011;21813;49.686;21.766;2022-11-20T05:48:01;137.50;;;64.85;;
35225;SDS011;21813;49.686;21.766;2022-11-20T05:50:30;133.75;;;62.03;;
35225;SDS011;21813;49.686;21.766;2022-11-20T05:52:59;133.45;;;63.00;;
35225;SDS011;21813;49.686;21.766;2022-11-20T05:55:28;143.27;;;64.97;;
35225;SDS011;21813;49.686;21.766;2022-11-20T05:57:54;138.35;;;61.15;;
35225;SDS011;21813;49.686;21.766;2022-11-20T06:00:20;132.63;;;60.85;;
35225;SDS011;21813;49.686;21.766;2022-11-20T06:02:47;154.07;;;66.22;;
35225;SDS011;21813;49.686;21.766;2022-11-20T06:05:12;137.98;;;63.55;;
35225;SDS011;21813;49.686;21.766;2022-11-20T06:07:39;147.32;;;66.03;;
35225;SDS011;21813;49.686;21.766;2022-11-20T06:10:04;149.52;;;66.63;;
35225;SDS011;21813;49.686;21.766;2022-11-20T06:12:32;140.35;;;66.78;;
35225;SDS011;21813;49.686;21.766;2022-11-20T06:14:58;139.13;;;65.50;;
35225;SDS011;21813;49.686;21.766;2022-11-20T06:17:27;135.93;;;64.13;;
35225;SDS011;21813;49.686;21.766;2022-11-20T06:19:53;146.02;;;66.38;;
35225;SDS011;21813;49.686;21.766;2022-11-20T06:22:20;140.27;;;64.70;;
35225;SDS011;21813;49.686;21.766;2022-11-20T06:24:46;139.07;;;65.85;;
35225;SDS011;21813;49.686;21.766;2022-11-20T06:27:13;144.40;;;68.22;;
35225;SDS011;21813;49.686;21.766;2022-11-20T06:29:39;142.38;;;65.88;;
35225;SDS011;21813;49.686;21.766;2022-11-20T06:32:06;146.05;;;68.93;;
35225;SDS011;21813;49.686;21.766;2022-11-20T06:34:32;163.73;;;79.38;;
35225;SDS011;21813;49.686;21.766;2022-11-20T06:36:59;132.80;;;62.17;;
35225;SDS011;21813;49.686;21.766;2022-11-20T06:39:24;122.53;;;59.50;;
35225;SDS011;21813;49.686;21.766;2022-11-20T06:41:52;127.82;;;54.70;;
35225;SDS011;21813;49.686;21.766;2022-11-20T06:44:17;125.93;;;56.17;;
35225;SDS011;21813;49.686;21.766;2022-11-20T06:46:44;125.97;;;55.38;;
35225;SDS011;21813;49.686;21.766;2022-11-20T06:49:09;121.75;;;56.28;;
35225;SDS011;21813;49.686;21.766;2022-11-20T06:51:35;122.07;;;56.97;;
35225;SDS011;21813;49.686;21.766;2022-11-20T06:54:01;121.55;;;54.78;;
35225;SDS011;21813;49.686;21.766;2022-11-20T06:56:28;125.22;;;57.47;;
35225;SDS011;21813;49.686;21.766;2022-11-20T06:58:53;133.93;;;62.47;;
35225;SDS011;21813;49.686;21.766;2022-11-20T07:01:21;138.48;;;62.25;;
35225;SDS011;21813;49.686;21.766;2022-11-20T07:03:48;130.38;;;61.08;;
35225;SDS011;21813;49.686;21.766;2022-11-20T07:06:16;135.63;;;60.17;;
35225;SDS011;21813;49.686;21.766;2022-11-20T07:08:41;123.85;;;57.63;;
35225;SDS011;21813;49.686;21.766;2022-11-20T07:11:11;119.93;;;55.33;;
35225;SDS011;21813;49.686;21.766;2022-11-20T07:13:37;138.05;;;62.03;;
35225;SDS011;21813;49.686;21.766;2022-11-20T07:16:07;125.68;;;56.90;;
35225;SDS011;21813;49.686;21.766;2022-11-20T07:21:56;118.40;;;52.88;;
35225;SDS011;21813;49.686;21.766;2022-11-20T07:24:22;112.45;;;51.28;;
35225;SDS011;21813;49.686;21.766;2022-11-20T07:27:02;119.22;;;52.58;;
35225;SDS011;21813;49.686;21.766;2022-11-20T07:29:50;125.20;;;56.00;;
35225;SDS011;21813;49.686;21.766;2022-11-20T07:32:16;120.68;;;54.55;;
35225;SDS011;21813;49.686;21.766;2022-11-20T07:34:42;119.38;;;56.25;;
35225;SDS011;21813;49.686;21.766;2022-11-20T07:37:08;115.18;;;54.38;;
35225;SDS011;21813;49.686;21.766;2022-11-20T07:39:40;126.10;;;57.45;;
35225;SDS011;21813;49.686;21.766;2022-11-20T07:45:06;137.55;;;62.80;;
35225;SDS011;21813;49.686;21.766;2022-11-20T07:48:02;132.18;;;62.00;;
35225;SDS011;21813;49.686;21.766;2022-11-20T07:51:40;134.45;;;62.47;;
35225;SDS011;21813;49.686;21.766;2022-11-20T07:54:07;126.97;;;60.38;;
35225;SDS011;21813;49.686;21.766;2022-11-20T07:56:32;133.85;;;61.83;;
35225;SDS011;21813;49.686;21.766;2022-11-20T08:02:00;143.43;;;64.90;;
35225;SDS011;21813;49.686;21.766;2022-11-20T08:04:27;139.82;;;66.68;;
35225;SDS011;21813;49.686;21.766;2022-11-20T08:07:00;146.20;;;64.82;;
35225;SDS011;21813;49.686;21.766;2022-11-20T08:28:32;82.63;;;38.20;;
35225;SDS011;21813;49.686;21.766;2022-11-20T08:37:56;68.97;;;35.40;;
35225;SDS011;21813;49.686;21.766;2022-11-20T08:44:09;61.83;;;28.83;;
35225;SDS011;21813;49.686;21.766;2022-11-20T08:46:37;69.43;;;34.03;;
35225;SDS011;21813;49.686;21.766;2022-11-20T08:49:12;69.97;;;32.75;;
35225;SDS011;21813;49.686;21.766;2022-11-20T09:01:42;60.35;;;29.88;;
35225;SDS011;21813;49.686;21.766;2022-11-20T09:14:11;62.22;;;31.40;;
35225;SDS011;21813;49.686;21.766;2022-11-20T09:17:09;61.33;;;30.52;;
35225;SDS011;21813;49.686;21.766;2022-11-20T09:34:33;44.33;;;23.25;;
35225;SDS011;21813;49.686;21.766;2022-11-20T10:04:03;37.53;;;20.75;;
35225;SDS011;21813;49.686;21.766;2022-11-20T10:10:13;38.28;;;20.85;;
35225;SDS011;21813;49.686;21.766;2022-11-20T10:40:58;41.53;;;22.85;;
35225;SDS011;21813;49.686;21.766;2022-11-20T10:54:53;51.53;;;31.13;;
35225;SDS011;21813;49.686;21.766;2022-11-20T11:02:01;64.18;;;32.15;;
35225;SDS011;21813;49.686;21.766;2022-11-20T11:08:43;41.50;;;21.45;;
35225;SDS011;21813;49.686;21.766;2022-11-20T11:14:42;53.53;;;27.67;;
35225;SDS011;21813;49.686;21.766;2022-11-20T11:52:15;45.03;;;22.80;;
35225;SDS011;21813;49.686;21.766;2022-11-20T12:02:54;55.97;;;28.90;;
35225;SDS011;21813;49.686;21.766;2022-11-20T12:06:03;54.20;;;27.63;;
35225;SDS011;21813;49.686;21.766;2022-11-20T12:09:52;47.13;;;25.70;;
35225;SDS011;21813;49.686;21.766;2022-11-20T12:12:20;47.33;;;26.13;;
35225;SDS011;21813;49.686;21.766;2022-11-20T12:15:22;49.38;;;27.00;;
35225;SDS011;21813;49.686;21.766;2022-11-20T14:39:20;60.10;;;31.17;;
35225;SDS011;21813;49.686;21.766;2022-11-20T14:41:50;58.22;;;31.73;;
35225;SDS011;21813;49.686;21.766;2022-11-20T14:44:21;66.30;;;32.47;;
35225;SDS011;21813;49.686;21.766;2022-11-20T14:46:54;65.47;;;32.60;;
35225;SDS011;21813;49.686;21.766;2022-11-20T14:49:33;57.67;;;30.88;;
35225;SDS011;21813;49.686;21.766;2022-11-20T14:52:55;61.25;;;32.33;;
35225;SDS011;21813;49.686;21.766;2022-11-20T15:14:44;61.17;;;31.17;;
35225;SDS011;21813;49.686;21.766;2022-11-20T15:17:12;63.55;;;32.13;;
35225;SDS011;21813;49.686;21.766;2022-11-20T15:20:54;54.75;;;28.33;;
35225;SDS011;21813;49.686;21.766;2022-11-20T15:27:03;56.05;;;28.08;;
35225;SDS011;21813;49.686;21.766;2022-11-20T15:29:33;61.00;;;32.08;;
35225;SDS011;21813;49.686;21.766;2022-11-20T15:34:38;62.63;;;31.98;;
35225;SDS011;21813;49.686;21.766;2022-11-20T16:09:43;106.55;;;51.67;;
35225;SDS011;21813;49.686;21.766;2022-11-20T16:14:52;116.30;;;58.55;;
35225;SDS011;21813;49.686;21.766;2022-11-20T16:17:51;95.25;;;50.55;;
35225;SDS011;21813;49.686;21.766;2022-11-20T16:26:54;111.57;;;56.10;;
35225;SDS011;21813;49.686;21.766;2022-11-20T16:29:45;108.75;;;53.22;;
35225;SDS011;21813;49.686;21.766;2022-11-20T16:39:06;130.18;;;58.35;;
35225;SDS011;21813;49.686;21.766;2022-11-20T16:49:05;143.80;;;70.28;;
35225;SDS011;21813;49.686;21.766;2022-11-20T16:52:11;141.70;;;68.18;;
35225;SDS011;21813;49.686;21.766;2022-11-20T16:58:08;150.65;;;72.53;;
35225;SDS011;21813;49.686;21.766;2022-11-20T17:00:41;171.23;;;81.82;;
35225;SDS011;21813;49.686;21.766;2022-11-20T17:03:07;166.40;;;80.15;;
35225;SDS011;21813;49.686;21.766;2022-11-20T17:05:34;168.10;;;82.10;;
35225;SDS011;21813;49.686;21.766;2022-11-20T17:08:09;174.45;;;82.32;;
35225;SDS011;21813;49.686;21.766;2022-11-20T17:22:17;240.90;;;117.20;;
35225;SDS011;21813;49.686;21.766;2022-11-20T17:24:44;251.20;;;118.57;;
35225;SDS011;21813;49.686;21.766;2022-11-20T17:27:10;228.85;;;112.32;;
35225;SDS011;21813;49.686;21.766;2022-11-20T17:33:53;253.90;;;116.72;;
35225;SDS011;21813;49.686;21.766;2022-11-20T17:36:33;248.90;;;118.30;;
35225;SDS011;21813;49.686;21.766;2022-11-20T17:39:06;240.07;;;113.63;;
35225;SDS011;21813;49.686;21.766;2022-11-20T17:41:43;246.00;;;114.00;;
35225;SDS011;21813;49.686;21.766;2022-11-20T17:44:13;227.40;;;107.20;;
35225;SDS011;21813;49.686;21.766;2022-11-20T17:46:45;214.70;;;104.43;;
35225;SDS011;21813;49.686;21.766;2022-11-20T17:51:37;193.18;;;90.55;;
35225;SDS011;21813;49.686;21.766;2022-11-20T17:54:18;192.85;;;95.05;;
35225;SDS011;21813;49.686;21.766;2022-11-20T18:01:16;236.77;;;110.95;;
35225;SDS011;21813;49.686;21.766;2022-11-20T18:03:45;215.77;;;101.85;;
35225;SDS011;21813;49.686;21.766;2022-11-20T18:06:39;212.73;;;97.90;;
35225;SDS011;21813;49.686;21.766;2022-11-20T18:09:08;213.50;;;101.15;;
35225;SDS011;21813;49.686;21.766;2022-11-20T18:11:34;220.15;;;100.03;;
35225;SDS011;21813;49.686;21.766;2022-11-20T18:14:12;220.98;;;105.15;;
35225;SDS011;21813;49.686;21.766;2022-11-20T18:17:03;202.55;;;97.07;;
35225;SDS011;21813;49.686;21.766;2022-11-20T18:19:33;224.00;;;104.20;;
35225;SDS011;21813;49.686;21.766;2022-11-20T18:22:10;216.02;;;103.20;;
35225;SDS011;21813;49.686;21.766;2022-11-20T18:24:44;224.63;;;103.70;;
35225;SDS011;21813;49.686;21.766;2022-11-20T18:27:47;228.10;;;107.10;;
35225;SDS011;21813;49.686;21.766;2022-11-20T18:30:27;217.60;;;107.57;;
35225;SDS011;21813;49.686;21.766;2022-11-20T18:32:52;227.40;;;104.07;;
35225;SDS011;21813;49.686;21.766;2022-11-20T18:35:34;217.07;;;99.40;;
35225;SDS011;21813;49.686;21.766;2022-11-20T18:38:13;228.57;;;110.55;;
35225;SDS011;21813;49.686;21.766;2022-11-20T18:40:42;223.57;;;99.85;;
35225;SDS011;21813;49.686;21.766;2022-11-20T18:43:11;221.75;;;105.40;;
35225;SDS011;21813;49.686;21.766;2022-11-20T18:49:15;196.85;;;93.97;;
35225;SDS011;21813;49.686;21.766;2022-11-20T18:55:07;181.00;;;87.03;;
35225;SDS011;21813;49.686;21.766;2022-11-20T18:58:02;178.57;;;88.28;;
35225;SDS011;21813;49.686;21.766;2022-11-20T19:01:05;179.55;;;86.47;;
35225;SDS011;21813;49.686;21.766;2022-11-20T19:04:05;175.30;;;84.32;;
35225;SDS011;21813;49.686;21.766;2022-11-20T19:06:57;175.00;;;81.60;;
35225;SDS011;21813;49.686;21.766;2022-11-20T19:09:46;184.05;;;88.45;;
35225;SDS011;21813;49.686;21.766;2022-11-20T19:12:45;174.18;;;83.68;;
35225;SDS011;21813;49.686;21.766;2022-11-20T19:28:34;219.27;;;98.22;;
35225;SDS011;21813;49.686;21.766;2022-11-20T19:56:24;178.50;;;84.50;;
35225;SDS011;21813;49.686;21.766;2022-11-20T20:06:04;189.60;;;87.07;;
35225;SDS011;21813;49.686;21.766;2022-11-20T20:30:34;201.50;;;91.32;;
35225;SDS011;21813;49.686;21.766;2022-11-20T20:33:03;208.25;;;97.32;;
35225;SDS011;21813;49.686;21.766;2022-11-20T20:35:52;221.15;;;84.50;;
35225;SDS011;21813;49.686;21.766;2022-11-20T20:39:09;233.00;;;77.88;;
35225;SDS011;21813;49.686;21.766;2022-11-20T20:41:49;223.23;;;73.28;;
35225;SDS011;21813;49.686;21.766;2022-11-20T21:16:48;140.65;;;45.30;;
35225;SDS011;21813;49.686;21.766;2022-11-20T21:33:52;177.18;;;44.90;;
35225;SDS011;21813;49.686;21.766;2022-11-20T21:39:32;164.98;;;44.95;;
35225;SDS011;21813;49.686;21.766;2022-11-20T21:42:01;192.93;;;43.22;;
35225;SDS011;21813;49.686;21.766;2022-11-20T22:12:16;120.90;;;32.03;;
35225;SDS011;21813;49.686;21.766;2022-11-20T22:18:15;119.60;;;33.85;;
35225;SDS011;21813;49.686;21.766;2022-11-20T22:51:02;86.18;;;30.60;;
35225;SDS011;21813;49.686;21.766;2022-11-20T22:57:42;81.88;;;32.78;;
35225;SDS011;21813;49.686;21.766;2022-11-20T23:00:15;76.88;;;29.60;;
